Time;durP1;ratioP1;P1;durP2;ratioP2;P2;SDS_P1;SDS_P2;PMS_P1;PMS_P2;Temp;Humidity;BMP_temperature;BMP_pressure;BME280_temperature;BME280_humidity;BME280_pressure;Samples;Min_cycle;Max_cycle;Signal;HPM_P1;HPM_P2
2022/07/15 00:02:14;;;;;;;4.32;2.35;;;19.60;66.10;;;;;;5109143;27;20024;-69
2022/07/15 00:04:40;;;;;;;4.03;2.15;;;19.60;66.00;;;;;;5094936;28;20077;-70
2022/07/15 00:07:06;;;;;;;4.45;2.00;;;19.60;66.60;;;;;;5091618;28;20491;-70
2022/07/15 00:12:16;;;;;;;2.00;1.80;;;19.40;67.30;;;;;;5097712;28;20396;-70
2022/07/15 00:14:42;;;;;;;4.57;1.65;;;19.30;67.10;;;;;;5094607;28;20079;-70
2022/07/15 00:17:08;;;;;;;2.45;1.67;;;19.30;67.30;;;;;;5087074;28;20056;-70
2022/07/15 00:19:34;;;;;;;5.97;2.60;;;19.20;67.70;;;;;;5095363;28;20463;-70
2022/07/15 00:22:01;;;;;;;3.92;1.83;;;19.10;68.80;;;;;;5094066;28;20533;-70
2022/07/15 00:24:27;;;;;;;4.40;2.17;;;19.00;68.10;;;;;;5084324;28;20031;-70
2022/07/15 00:26:53;;;;;;;3.78;2.08;;;19.00;69.30;;;;;;5087361;28;20020;-70
2022/07/15 00:29:19;;;;;;;2.85;1.90;;;18.90;69.40;;;;;;5080093;28;20501;-70
2022/07/15 00:31:44;;;;;;;3.58;1.85;;;18.90;69.70;;;;;;5093386;28;20111;-70
2022/07/15 00:34:10;;;;;;;3.35;1.98;;;18.80;70.00;;;;;;5088209;28;20040;-69
2022/07/15 00:36:36;;;;;;;4.80;2.03;;;18.70;70.50;;;;;;5087813;28;20028;-70
2022/07/15 00:39:01;;;;;;;5.88;2.30;;;18.60;70.70;;;;;;5092264;28;20027;-71
2022/07/15 00:41:34;;;;;;;3.30;2.05;;;18.50;71.00;;;;;;5095075;28;20023;-71
2022/07/15 00:44:00;;;;;;;2.10;1.90;;;18.50;71.20;;;;;;5088678;28;20058;-70
2022/07/15 00:46:25;;;;;;;3.25;2.50;;;18.40;71.10;;;;;;5087081;28;20406;-70
2022/07/15 00:48:51;;;;;;;13.90;2.70;;;18.30;71.20;;;;;;5084486;28;20024;-70
2022/07/15 00:51:17;;;;;;;1.90;1.70;;;18.30;71.50;;;;;;5100159;28;20028;-71
2022/07/15 00:53:46;;;;;;;3.47;1.58;;;18.30;71.50;;;;;;5092804;28;20070;-71
2022/07/15 00:56:14;;;;;;;5.53;2.17;;;;;;;;;;5091697;28;20119;-71
2022/07/15 00:58:41;;;;;;;3.55;1.90;;;18.20;71.50;;;;;;5085760;28;20467;-71
2022/07/15 01:01:07;;;;;;;2.55;2.03;;;18.10;72.10;;;;;;5087865;28;21439;-71
2022/07/15 01:03:33;;;;;;;1.92;1.67;;;18.00;72.20;;;;;;5091132;28;20081;-71
2022/07/15 01:05:59;;;;;;;4.07;2.03;;;18.00;72.30;;;;;;5094570;28;20430;-71
2022/07/15 01:08:25;;;;;;;4.70;1.90;;;17.90;72.50;;;;;;5096211;28;20045;-71
2022/07/15 01:10:52;;;;;;;5.60;2.10;;;17.80;72.80;;;;;;5080195;28;20031;-70
2022/07/15 01:13:19;;;;;;;3.25;1.90;;;17.80;72.90;;;;;;5095291;28;20048;-71
2022/07/15 01:15:45;;;;;;;5.25;2.53;;;17.70;73.10;;;;;;5094373;28;20048;-71
2022/07/15 01:18:11;;;;;;;3.88;2.05;;;17.70;73.30;;;;;;5092543;28;20024;-71
2022/07/15 01:20:41;;;;;;;3.60;1.80;;;17.60;73.40;;;;;;5086254;28;20069;-71
2022/07/15 01:23:07;;;;;;;3.55;2.17;;;17.60;73.60;;;;;;5088553;28;20459;-71
2022/07/15 01:25:33;;;;;;;3.33;1.75;;;17.50;73.80;;;;;;5097149;28;20032;-71
2022/07/15 01:27:59;;;;;;;4.85;2.30;;;17.50;74.00;;;;;;5093056;28;20456;-70
2022/07/15 01:30:25;;;;;;;3.15;1.70;;;17.40;74.40;;;;;;5087072;28;20399;-70
2022/07/15 01:32:51;;;;;;;3.10;2.25;;;17.40;74.50;;;;;;5090374;28;20028;-69
2022/07/15 01:35:18;;;;;;;3.55;1.85;;;17.30;74.90;;;;;;5094911;28;20115;-71
2022/07/15 01:37:44;;;;;;;6.15;2.83;;;17.30;75.20;;;;;;5097412;28;20039;-71
2022/07/15 01:40:10;;;;;;;4.47;2.58;;;17.20;75.60;;;;;;5095490;28;20024;-71
2022/07/15 01:42:37;;;;;;;4.43;2.50;;;17.20;75.60;;;;;;5095031;28;20024;-71
2022/07/15 01:45:04;;;;;;;5.47;2.97;;;17.10;75.80;;;;;;5096947;28;20181;-71
2022/07/15 01:47:32;;;;;;;2.10;1.77;;;17.10;75.90;;;;;;5095119;28;20047;-70
2022/07/15 01:49:58;;;;;;;2.88;1.88;;;17.10;75.90;;;;;;5096409;28;20030;-71
2022/07/15 01:52:24;;;;;;;4.60;2.22;;;17.00;76.10;;;;;;5090478;28;20023;-70
2022/07/15 01:54:51;;;;;;;2.67;2.03;;;17.00;76.40;;;;;;5101048;28;20040;-69
2022/07/15 01:57:17;;;;;;;8.70;2.20;;;17.00;76.70;;;;;;5088985;28;20115;-71
2022/07/15 01:59:43;;;;;;;5.00;2.20;;;16.90;76.90;;;;;;5095532;28;20452;-71
2022/07/15 02:02:08;;;;;;;5.82;2.38;;;16.90;77.00;;;;;;5088735;28;20111;-71
2022/07/15 02:04:34;;;;;;;4.57;2.95;;;16.90;77.20;;;;;;5096872;28;20031;-71
2022/07/15 02:07:00;;;;;;;5.78;2.08;;;16.80;77.20;;;;;;5095257;28;20093;-71
2022/07/15 02:09:26;;;;;;;7.50;2.53;;;16.80;77.30;;;;;;5092522;28;20031;-69
2022/07/15 02:11:51;;;;;;;4.07;2.63;;;16.80;77.40;;;;;;5089694;28;20081;-70
2022/07/15 02:14:17;;;;;;;4.10;2.17;;;16.80;77.60;;;;;;5096346;28;20143;-71
2022/07/15 02:16:43;;;;;;;4.03;2.17;;;16.70;77.70;;;;;;5098090;28;20051;-71
2022/07/15 02:19:09;;;;;;;4.20;2.40;;;16.70;77.90;;;;;;5095193;28;20431;-70
2022/07/15 02:21:36;;;;;;;4.35;2.50;;;16.70;78.10;;;;;;5091087;28;20028;-70
2022/07/15 02:24:01;;;;;;;6.93;2.42;;;16.60;78.30;;;;;;5088559;28;20072;-70
2022/07/15 02:26:27;;;;;;;3.55;2.50;;;16.60;78.60;;;;;;5093805;28;20039;-68
2022/07/15 02:28:53;;;;;;;5.68;2.90;;;16.60;78.60;;;;;;5097691;28;20040;-71
2022/07/15 02:31:19;;;;;;;5.70;2.50;;;16.50;78.80;;;;;;5094884;28;20028;-70
2022/07/15 02:33:44;;;;;;;5.70;2.67;;;16.50;79.00;;;;;;5092998;28;20100;-68
2022/07/15 02:36:10;;;;;;;3.95;2.03;;;16.40;79.20;;;;;;5091437;28;20489;-70
2022/07/15 02:38:37;;;;;;;5.43;2.42;;;16.40;79.30;;;;;;5095732;28;20372;-70
2022/07/15 02:41:03;;;;;;;7.75;2.20;;;16.40;79.50;;;;;;5096148;28;20025;-71
2022/07/15 02:43:29;;;;;;;3.83;2.00;;;16.30;79.40;;;;;;5096575;28;20024;-69
2022/07/15 02:45:55;;;;;;;4.22;2.30;;;16.30;79.40;;;;;;5086467;28;20045;-71
2022/07/15 02:48:21;;;;;;;5.35;2.42;;;16.30;79.40;;;;;;5082265;28;20043;-71
2022/07/15 02:50:47;;;;;;;4.13;2.15;;;16.20;79.30;;;;;;5092202;28;20028;-71
2022/07/15 02:53:14;;;;;;;4.57;2.63;;;16.20;79.50;;;;;;5095677;28;20036;-70
2022/07/15 02:55:39;;;;;;;4.22;1.83;;;16.10;79.40;;;;;;5092365;28;20035;-69
2022/07/15 02:58:05;;;;;;;5.35;2.17;;;16.10;79.40;;;;;;5089989;28;20032;-70
2022/07/15 03:00:32;;;;;;;6.45;2.60;;;16.10;79.40;;;;;;5094063;28;20059;-71
2022/07/15 03:02:58;;;;;;;3.28;1.95;;;16.10;79.40;;;;;;5100225;28;20469;-71
2022/07/15 03:05:24;;;;;;;4.95;2.22;;;16.10;79.50;;;;;;5093995;28;20026;-71
2022/07/15 03:07:50;;;;;;;4.35;2.38;;;16.00;79.80;;;;;;5091718;28;20040;-71
2022/07/15 03:10:16;;;;;;;4.80;2.00;;;16.00;80.00;;;;;;5094067;28;20020;-71
2022/07/15 03:12:42;;;;;;;3.00;2.00;;;16.00;79.90;;;;;;5094353;28;20035;-71
2022/07/15 03:15:08;;;;;;;3.13;1.45;;;15.90;79.60;;;;;;5087937;28;20072;-71
2022/07/15 03:17:34;;;;;;;5.63;1.90;;;15.90;79.50;;;;;;5093395;28;20027;-71
2022/07/15 03:20:00;;;;;;;4.07;1.63;;;15.90;79.50;;;;;;5092595;28;20028;-71
2022/07/15 03:22:27;;;;;;;3.40;2.10;;;15.80;79.60;;;;;;5090262;28;20035;-71
2022/07/15 03:24:53;;;;;;;4.68;1.95;;;15.80;79.90;;;;;;5090599;28;20465;-71
2022/07/15 03:27:18;;;;;;;4.28;1.75;;;15.80;80.10;;;;;;5090118;28;20035;-71
2022/07/15 03:29:44;;;;;;;2.38;1.77;;;15.70;80.20;;;;;;5099575;28;20024;-71
2022/07/15 03:32:10;;;;;;;6.38;1.85;;;15.70;80.30;;;;;;5092894;28;20396;-71
2022/07/15 03:34:36;;;;;;;2.97;1.67;;;15.70;80.40;;;;;;5096698;28;20035;-71
2022/07/15 03:37:02;;;;;;;3.00;1.80;;;15.70;80.40;;;;;;5100424;28;20365;-71
2022/07/15 03:39:28;;;;;;;3.70;1.92;;;15.70;80.70;;;;;;5099450;28;20024;-68
2022/07/15 03:41:53;;;;;;;7.20;2.05;;;15.70;80.90;;;;;;5092894;28;20028;-71
2022/07/15 03:44:19;;;;;;;3.92;1.85;;;15.70;81.00;;;;;;5092975;28;20461;-70
2022/07/15 03:46:47;;;;;;;4.78;1.90;;;15.70;81.00;;;;;;5097092;28;20111;-70
2022/07/15 03:49:14;;;;;;;3.20;2.10;;;15.70;81.10;;;;;;5093625;28;20361;-70
2022/07/15 03:51:40;;;;;;;2.97;1.80;;;15.80;81.30;;;;;;5094937;28;20028;-71
2022/07/15 03:54:06;;;;;;;3.65;2.00;;;15.70;81.30;;;;;;5086756;28;20597;-71
2022/07/15 03:56:33;;;;;;;3.13;1.88;;;15.70;81.50;;;;;;5094126;28;20060;-72
2022/07/15 03:58:59;;;;;;;4.90;2.00;;;15.70;81.70;;;;;;5082563;28;20508;-71
2022/07/15 04:01:25;;;;;;;3.88;2.25;;;15.80;82.20;;;;;;5094743;28;20023;-71
2022/07/15 04:03:52;;;;;;;3.42;2.15;;;15.70;82.50;;;;;;5095333;28;20493;-71
2022/07/15 04:06:18;;;;;;;3.92;2.03;;;15.70;82.80;;;;;;5089670;28;20082;-70
2022/07/15 04:08:44;;;;;;;4.05;2.10;;;15.80;83.00;;;;;;5093802;28;20032;-71
2022/07/15 04:11:11;;;;;;;4.43;2.45;;;15.80;83.00;;;;;;5092074;28;20036;-71
2022/07/15 04:13:37;;;;;;;3.63;2.05;;;15.80;83.00;;;;;;5090041;28;20028;-71
2022/07/15 04:16:04;;;;;;;3.90;2.28;;;15.80;83.10;;;;;;5089233;28;20138;-71
2022/07/15 04:18:29;;;;;;;4.68;2.22;;;15.80;83.20;;;;;;5089718;28;20039;-71
2022/07/15 04:20:55;;;;;;;5.88;2.63;;;15.90;83.50;;;;;;5083311;28;20024;-69
2022/07/15 04:23:21;;;;;;;5.68;2.13;;;15.80;83.60;;;;;;5090480;28;20050;-71
2022/07/15 04:25:46;;;;;;;4.43;2.10;;;15.90;83.70;;;;;;5091727;28;20413;-71
2022/07/15 04:28:12;;;;;;;3.42;2.28;;;15.90;83.90;;;;;;5090787;28;20039;-71
2022/07/15 04:30:37;;;;;;;3.85;2.17;;;16.00;84.10;;;;;;5085681;28;20053;-70
2022/07/15 04:33:03;;;;;;;5.25;2.10;;;16.00;84.00;;;;;;5095104;28;20059;-69
2022/07/15 04:35:29;;;;;;;3.72;2.72;;;16.10;84.00;;;;;;5088560;28;20460;-70
2022/07/15 04:37:55;;;;;;;4.18;2.40;;;16.10;83.90;;;;;;5096066;28;20028;-69
2022/07/15 04:40:20;;;;;;;3.47;2.55;;;16.20;84.00;;;;;;5085497;28;20392;-70
2022/07/15 04:42:46;;;;;;;4.22;2.55;;;16.30;83.90;;;;;;5081033;28;20389;-70
2022/07/15 04:45:12;;;;;;;6.43;2.78;;;16.40;84.60;;;;;;5085440;28;20089;-70
2022/07/15 04:47:38;;;;;;;56.97;27.20;;;16.50;84.20;;;;;;5091116;28;20036;-70
2022/07/15 04:52:48;;;;;;;14.93;4.95;;;16.70;84.30;;;;;;5091026;28;20108;-70
2022/07/15 04:55:14;;;;;;;6.78;4.40;;;16.80;83.60;;;;;;5094153;28;20122;-70
2022/07/15 04:57:41;;;;;;;9.02;4.00;;;16.90;83.10;;;;;;5087333;28;20043;-70
2022/07/15 05:00:08;;;;;;;8.35;3.20;;;17.00;82.90;;;;;;5093290;28;20032;-70
2022/07/15 05:02:34;;;;;;;5.90;3.13;;;17.10;82.60;;;;;;5094692;28;20477;-70
2022/07/15 05:05:00;;;;;;;7.32;3.38;;;17.20;82.40;;;;;;5094228;28;20108;-70
2022/07/15 05:07:25;;;;;;;7.32;3.25;;;17.30;82.30;;;;;;5092028;28;20024;-70
2022/07/15 05:09:51;;;;;;;7.65;3.20;;;17.40;82.30;;;;;;5084272;28;20058;-72
2022/07/15 05:12:17;;;;;;;6.03;3.55;;;17.50;81.90;;;;;;5089674;28;20026;-71
2022/07/15 05:14:43;;;;;;;7.68;3.20;;;17.60;81.30;;;;;;5090874;28;20052;-71
2022/07/15 05:17:08;;;;;;;4.63;2.58;;;17.60;80.90;;;;;;5093075;28;20031;-70
2022/07/15 05:19:35;;;;;;;5.43;3.17;;;17.70;81.30;;;;;;5089342;28;20067;-71
2022/07/15 05:22:01;;;;;;;4.93;2.90;;;17.70;81.30;;;;;;5092394;28;20028;-70
2022/07/15 05:24:26;;;;;;;5.47;3.50;;;17.80;81.50;;;;;;5091316;28;20475;-72
2022/07/15 05:26:52;;;;;;;5.20;2.72;;;17.90;81.80;;;;;;5091948;28;20039;-72
2022/07/15 05:29:21;;;;;;;6.97;3.70;;;18.00;81.80;;;;;;5091738;28;20464;-76
2022/07/15 05:31:47;;;;;;;5.90;3.40;;;18.20;81.70;;;;;;5085711;28;20030;-72
2022/07/15 05:34:13;;;;;;;8.30;3.20;;;18.40;81.40;;;;;;5095396;28;20460;-72
2022/07/15 05:36:39;;;;;;;6.95;3.15;;;18.40;81.00;;;;;;5091371;28;20035;-71
2022/07/15 05:39:04;;;;;;;5.68;2.58;;;18.40;80.80;;;;;;5096804;28;20071;-71
2022/07/15 05:41:32;;;;;;;3.83;3.10;;;18.40;80.70;;;;;;5091954;28;20045;-71
2022/07/15 05:43:58;;;;;;;5.07;3.08;;;18.50;81.20;;;;;;5087931;28;20024;-71
2022/07/15 05:46:23;;;;;;;7.40;3.22;;;18.50;80.90;;;;;;5094423;28;20412;-71
2022/07/15 05:48:49;;;;;;;9.32;3.55;;;18.60;80.90;;;;;;5090537;28;20111;-71
2022/07/15 05:51:15;;;;;;;5.40;3.08;;;18.70;79.90;;;;;;5102018;28;20024;-80
2022/07/15 05:53:41;;;;;;;6.10;2.80;;;18.80;78.40;;;;;;5089454;28;20039;-72
2022/07/15 05:56:07;;;;;;;7.55;3.17;;;18.80;78.30;;;;;;5095182;28;20027;-76
2022/07/15 05:58:32;;;;;;;6.82;2.67;;;18.90;78.80;;;;;;5068428;28;20025;-74
2022/07/15 06:00:58;;;;;;;8.55;3.20;;;19.00;78.30;;;;;;5095559;28;20028;-75
2022/07/15 06:03:23;;;;;;;11.23;3.22;;;19.10;77.30;;;;;;5099886;28;20023;-75
2022/07/15 06:05:49;;;;;;;7.20;2.72;;;19.20;76.70;;;;;;5092284;28;20081;-69
2022/07/15 06:08:15;;;;;;;5.85;2.60;;;19.30;75.70;;;;;;5087871;28;20107;-68
2022/07/15 06:10:41;;;;;;;5.07;2.65;;;19.40;75.50;;;;;;5094770;28;20077;-67
2022/07/15 06:13:07;;;;;;;5.30;2.53;;;19.50;74.80;;;;;;5096051;28;20052;-70
2022/07/15 06:15:33;;;;;;;6.88;2.55;;;19.50;74.30;;;;;;5089627;28;20048;-68
2022/07/15 06:17:59;;;;;;;5.90;2.33;;;19.60;74.20;;;;;;5094921;28;20438;-75
2022/07/15 06:20:25;;;;;;;4.97;2.60;;;19.70;73.70;;;;;;5083482;28;20028;-67
2022/07/15 06:22:50;;;;;;;8.45;2.67;;;19.80;73.40;;;;;;5084596;28;20123;-67
2022/07/15 06:25:16;;;;;;;4.28;2.53;;;19.70;73.90;;;;;;5096399;28;20443;-79
2022/07/15 06:27:41;;;;;;;9.52;2.78;;;19.80;73.90;;;;;;5089986;28;20476;-82
2022/07/15 06:30:09;;;;;;;5.15;2.05;;;19.90;74.30;;;;;;5097505;28;20056;-74
2022/07/15 06:32:35;;;;;;;4.45;2.60;;;19.90;74.00;;;;;;5096765;28;20037;-77
2022/07/15 06:35:01;;;;;;;7.72;2.55;;;20.00;74.10;;;;;;5095828;28;20040;-80
2022/07/15 06:37:27;;;;;;;8.38;2.92;;;20.00;73.30;;;;;;5094129;28;20027;-76
2022/07/15 06:39:54;;;;;;;6.10;2.17;;;20.10;72.50;;;;;;5083580;28;20349;-81
2022/07/15 06:42:21;;;;;;;4.75;2.03;;;20.20;71.70;;;;;;5093583;28;20023;-78
2022/07/15 06:44:47;;;;;;;8.35;2.40;;;20.20;71.80;;;;;;5093839;28;20391;-79
2022/07/15 06:47:13;;;;;;;10.52;2.60;;;20.30;70.30;;;;;;5086348;28;20107;-78
2022/07/15 06:49:38;;;;;;;6.63;2.83;;;20.40;69.80;;;;;;5091987;28;20020;-78
2022/07/15 06:52:05;;;;;;;9.77;2.33;;;20.60;69.60;;;;;;5099884;28;20024;-80
2022/07/15 06:54:31;;;;;;;5.40;2.70;;;20.70;69.40;;;;;;5097631;28;20047;-78
2022/07/15 06:56:57;;;;;;;4.32;2.40;;;20.70;69.10;;;;;;5096154;28;20059;-77
2022/07/15 06:59:23;;;;;;;6.53;2.05;;;20.70;69.30;;;;;;5096834;28;20068;-77
2022/07/15 07:01:50;;;;;;;8.52;2.33;;;20.80;69.20;;;;;;5083692;28;20070;-78
2022/07/15 07:04:15;;;;;;;10.15;2.45;;;20.80;68.50;;;;;;5091676;28;20024;-77
2022/07/15 07:06:41;;;;;;;7.45;2.13;;;21.00;69.10;;;;;;5092731;28;20023;-77
2022/07/15 07:09:06;;;;;;;5.78;2.40;;;21.00;69.30;;;;;;5086722;28;20746;-77
2022/07/15 07:11:32;;;;;;;8.60;2.83;;;21.00;69.20;;;;;;5095449;28;20047;-77
2022/07/15 07:13:59;;;;;;;6.07;2.05;;;21.20;68.00;;;;;;5091156;28;20039;-76
2022/07/15 07:16:25;;;;;;;4.93;1.73;;;21.20;68.00;;;;;;5087988;28;20118;-78
2022/07/15 07:18:50;;;;;;;5.15;2.35;;;21.30;67.20;;;;;;5092976;28;20111;-78
2022/07/15 07:21:17;;;;;;;7.22;2.00;;;21.40;67.30;;;;;;5082841;28;20739;-69
2022/07/15 07:23:43;;;;;;;12.07;2.05;;;21.60;65.90;;;;;;5091971;28;20032;-69
2022/07/15 07:26:10;;;;;;;8.43;2.28;;;21.70;66.90;;;;;;5093819;28;20047;-69
2022/07/15 07:28:39;;;;;;;5.43;2.13;;;21.70;65.50;;;;;;5096033;28;20089;-67
2022/07/15 07:31:05;;;;;;;9.30;2.53;;;21.60;65.80;;;;;;5098012;28;20040;-68
2022/07/15 07:33:30;;;;;;;4.25;1.85;;;21.70;65.10;;;;;;5094053;28;20066;-68
2022/07/15 07:35:56;;;;;;;6.53;2.40;;;21.70;65.50;;;;;;5089977;28;20443;-67
2022/07/15 07:38:21;;;;;;;8.50;2.28;;;21.80;65.40;;;;;;5090312;28;20028;-68
2022/07/15 07:40:48;;;;;;;6.05;2.22;;;21.80;65.20;;;;;;5085063;28;20170;-67
2022/07/15 07:43:18;;;;;;;8.35;2.03;;;22.00;64.10;;;;;;5097611;28;20051;-68
2022/07/15 07:45:45;;;;;;;3.47;1.88;;;22.20;63.40;;;;;;5090645;28;20103;-68
2022/07/15 07:48:10;;;;;;;4.68;1.65;;;22.20;63.10;;;;;;5092201;28;20063;-68
2022/07/15 07:50:38;;;;;;;2.58;1.92;;;22.30;62.80;;;;;;5097542;28;20040;-66
2022/07/15 07:53:03;;;;;;;3.75;2.03;;;22.30;62.20;;;;;;5090214;28;20369;-66
2022/07/15 07:55:29;;;;;;;5.88;1.60;;;22.30;60.50;;;;;;5088727;28;20043;-68
2022/07/15 07:57:57;;;;;;;7.60;2.00;;;22.40;60.50;;;;;;5086097;28;20045;-68
2022/07/15 08:00:26;;;;;;;10.15;1.80;;;22.50;60.40;;;;;;5091692;28;20409;-68
2022/07/15 08:02:52;;;;;;;3.30;1.42;;;22.50;60.60;;;;;;5088071;28;20037;-68
2022/07/15 08:05:18;;;;;;;2.92;1.60;;;22.60;60.40;;;;;;5085702;28;20051;-68
2022/07/15 08:07:43;;;;;;;2.70;1.75;;;22.60;60.00;;;;;;5089514;28;20116;-69
2022/07/15 08:10:10;;;;;;;5.05;1.85;;;22.60;60.00;;;;;;5092219;28;20024;-69
2022/07/15 08:12:39;;;;;;;3.53;1.75;;;22.70;59.90;;;;;;5092110;28;20031;-68
2022/07/15 08:15:08;;;;;;;6.78;1.73;;;22.70;60.20;;;;;;5090569;28;20136;-69
2022/07/15 08:17:34;;;;;;;4.82;1.58;;;22.90;60.70;;;;;;5078146;28;20039;-67
2022/07/15 08:20:00;;;;;;;6.07;1.80;;;23.00;61.00;;;;;;5087590;28;20111;-68
2022/07/15 08:22:25;;;;;;;5.45;1.85;;;23.10;60.90;;;;;;5092745;28;20099;-69
2022/07/15 08:24:51;;;;;;;6.47;2.20;;;23.20;59.50;;;;;;5084628;28;20079;-68
2022/07/15 08:27:17;;;;;;;4.22;1.92;;;23.20;60.00;;;;;;5090058;28;20028;-67
2022/07/15 08:29:44;;;;;;;5.18;1.70;;;23.20;59.50;;;;;;5087523;28;20530;-68
2022/07/15 08:32:09;;;;;;;4.93;1.55;;;23.30;58.00;;;;;;5092144;28;20036;-68
2022/07/15 08:34:35;;;;;;;5.35;1.75;;;23.20;58.90;;;;;;5088739;28;20031;-67
2022/07/15 08:37:01;;;;;;;9.70;2.20;;;23.30;57.80;;;;;;5090756;28;20032;-67
2022/07/15 08:39:26;;;;;;;6.75;1.70;;;23.40;58.20;;;;;;5099172;28;20023;-67
2022/07/15 08:41:52;;;;;;;4.38;2.17;;;23.40;59.50;;;;;;5099392;28;20434;-67
2022/07/15 08:44:18;;;;;;;4.93;1.90;;;23.50;57.70;;;;;;5095267;28;20086;-67
2022/07/15 08:46:47;;;;;;;5.90;1.70;;;23.40;57.80;;;;;;5094114;28;20066;-68
2022/07/15 08:49:16;;;;;;;4.55;2.15;;;23.30;60.00;;;;;;5091375;28;20088;-68
2022/07/15 08:51:44;;;;;;;5.72;2.00;;;23.50;58.50;;;;;;5086453;28;20051;-67
2022/07/15 08:54:11;;;;;;;4.80;1.55;;;23.50;58.00;;;;;;5088156;28;20111;-67
2022/07/15 08:56:37;;;;;;;3.53;1.80;;;23.50;58.20;;;;;;5090962;28;20044;-67
2022/07/15 08:59:05;;;;;;;3.40;1.75;;;23.60;58.80;;;;;;5092946;28;20081;-67
2022/07/15 09:01:32;;;;;;;4.93;2.15;;;23.80;57.70;;;;;;5085662;28;20028;-68
2022/07/15 09:03:58;;;;;;;4.28;1.60;;;23.70;56.90;;;;;;5085432;28;20329;-68
2022/07/15 09:06:42;;;;;;;5.40;1.92;;;23.70;57.70;;;;;;5088294;28;20036;-67
2022/07/15 09:09:25;;;;;;;3.67;1.73;;;23.60;57.60;;;;;;5088966;28;20163;-67
2022/07/15 09:12:05;;;;;;;5.38;2.13;;;23.70;58.60;;;;;;5084815;28;20032;-67
2022/07/15 09:14:33;;;;;;;4.60;1.98;;;23.80;58.30;;;;;;5089355;28;20074;-67
2022/07/15 09:17:11;;;;;;;8.43;2.13;;;23.90;57.70;;;;;;5091553;28;20442;-68
2022/07/15 09:19:57;;;;;;;7.45;2.70;;;24.10;57.60;;;;;;5097936;28;20027;-66
2022/07/15 09:22:23;;;;;;;21.27;2.75;;;24.30;58.10;;;;;;5094562;28;20106;-68
2022/07/15 09:25:15;;;;;;;5.40;2.40;;;24.40;57.70;;;;;;5098138;28;20024;-67
2022/07/15 09:27:43;;;;;;;5.35;1.95;;;24.60;58.00;;;;;;5083506;28;20052;-67
2022/07/15 09:36:03;;;;;;;5.43;1.80;;;25.00;56.60;;;;;;5085495;28;20047;-68
2022/07/15 09:38:58;;;;;;;6.15;2.05;;;24.90;56.50;;;;;;5096196;28;20024;-68
2022/07/15 09:41:31;;;;;;;5.55;2.08;;;24.80;57.10;;;;;;5097012;28;20024;-68
2022/07/15 09:44:09;;;;;;;37.85;3.08;;;24.70;57.30;;;;;;5091962;28;20067;-67
2022/07/15 09:46:59;;;;;;;6.95;2.15;;;24.70;57.60;;;;;;5089581;28;20169;-68
2022/07/15 09:49:24;;;;;;;8.90;2.38;;;24.90;57.30;;;;;;5088035;28;20103;-68
2022/07/15 09:51:59;;;;;;;7.90;2.55;;;25.10;56.70;;;;;;5095926;28;20414;-67
2022/07/15 09:54:30;;;;;;;4.70;1.95;;;25.30;56.40;;;;;;5083869;28;20028;-68
2022/07/15 09:57:01;;;;;;;14.50;2.65;;;25.50;56.50;;;;;;5097255;28;20032;-67
2022/07/15 09:59:28;;;;;;;5.18;2.22;;;25.60;56.90;;;;;;5096695;28;20020;-68
2022/07/15 10:01:55;;;;;;;15.13;2.50;;;25.70;55.20;;;;;;5097757;28;20032;-71
2022/07/15 10:04:22;;;;;;;7.63;2.22;;;25.50;55.70;;;;;;5086642;28;20060;-68
2022/07/15 10:06:50;;;;;;;8.10;2.00;;;25.50;56.20;;;;;;5090116;28;20084;-69
2022/07/15 10:09:21;;;;;;;7.70;2.40;;;25.20;55.80;;;;;;5088484;28;20027;-69
2022/07/15 10:11:50;;;;;;;4.22;2.10;;;25.10;55.20;;;;;;5092330;28;20040;-69
2022/07/15 10:14:34;;;;;;;3.97;1.80;;;24.90;55.70;;;;;;5093355;28;20054;-68
2022/07/15 10:17:38;;;;;;;16.15;2.88;;;25.10;55.70;;;;;;5067894;28;20113;-68
2022/07/15 10:20:22;;;;;;;7.90;2.22;;;25.30;55.40;;;;;;5070333;28;20040;-69
2022/07/15 10:22:48;;;;;;;4.55;1.70;;;25.50;55.60;;;;;;5064658;28;20063;-69
2022/07/15 10:25:28;;;;;;;5.75;2.22;;;25.70;55.70;;;;;;5062183;28;20052;-66
2022/07/15 10:28:15;;;;;;;3.72;1.85;;;26.00;56.10;;;;;;5070414;28;20032;-66
2022/07/15 10:30:43;;;;;;;6.25;1.73;;;26.20;54.40;;;;;;5072384;28;20040;-65
2022/07/15 10:33:17;;;;;;;4.15;1.80;;;26.30;54.20;;;;;;5071889;28;20024;-67
2022/07/15 10:35:51;;;;;;;4.97;1.88;;;26.50;54.00;;;;;;5065963;28;20064;-66
2022/07/15 10:38:29;;;;;;;4.18;2.38;;;26.70;54.00;;;;;;5070333;28;20044;-67
2022/07/15 10:41:03;;;;;;;5.63;2.08;;;26.80;53.00;;;;;;5071839;28;20029;-67
2022/07/15 10:43:38;;;;;;;5.32;2.25;;;26.80;53.30;;;;;;5068662;28;20025;-68
2022/07/15 10:46:11;;;;;;;5.93;2.10;;;26.80;53.60;;;;;;5069342;28;20032;-67
2022/07/15 10:48:37;;;;;;;3.40;1.98;;;26.90;53.20;;;;;;5071242;28;20482;-67
2022/07/15 10:51:03;;;;;;;7.05;2.20;;;26.90;53.40;;;;;;5071420;28;20111;-67
2022/07/15 10:53:29;;;;;;;4.03;2.10;;;27.00;53.30;;;;;;5069633;28;20071;-68
2022/07/15 10:55:55;;;;;;;7.30;2.13;;;26.90;53.80;;;;;;5071271;28;20442;-66
2022/07/15 10:58:21;;;;;;;4.85;2.13;;;26.70;54.00;;;;;;5070985;28;20038;-67
2022/07/15 11:00:47;;;;;;;7.38;2.40;;;26.70;53.60;;;;;;5071432;28;20024;-67
2022/07/15 11:03:18;;;;;;;10.23;2.03;;;26.70;54.00;;;;;;5070595;28;20032;-67
2022/07/15 11:06:05;;;;;;;5.18;2.10;;;26.40;53.60;;;;;;5067700;28;20087;-66
2022/07/15 11:08:34;;;;;;;4.68;2.20;;;26.40;53.90;;;;;;5060531;28;20407;-68
2022/07/15 11:11:15;;;;;;;7.32;2.00;;;26.60;53.60;;;;;;5064997;28;21266;-67
2022/07/15 11:13:46;;;;;;;9.07;2.40;;;26.90;53.70;;;;;;5071896;28;20133;-66
2022/07/15 11:16:13;;;;;;;8.45;2.22;;;27.00;52.90;;;;;;5058633;28;20049;-68
2022/07/15 11:18:50;;;;;;;4.57;1.77;;;27.30;52.90;;;;;;5070436;28;20025;-68
2022/07/15 11:21:16;;;;;;;3.13;1.77;;;27.50;52.40;;;;;;5071955;28;20606;-68
2022/07/15 11:23:45;;;;;;;5.53;2.60;;;27.80;52.20;;;;;;5071290;28;20033;-67
2022/07/15 11:26:11;;;;;;;5.78;2.08;;;28.00;52.60;;;;;;5070707;28;20024;-67
2022/07/15 11:28:37;;;;;;;6.05;2.17;;;28.20;51.50;;;;;;5065869;28;20040;-67
2022/07/15 11:31:02;;;;;;;5.88;2.40;;;28.20;51.50;;;;;;5069863;28;20165;-67
2022/07/15 11:33:30;;;;;;;9.30;2.03;;;28.10;51.30;;;;;;5069063;28;20032;-70
2022/07/15 11:36:01;;;;;;;6.05;1.90;;;27.80;52.00;;;;;;5066632;28;20040;-68
2022/07/15 11:38:29;;;;;;;3.83;1.85;;;27.60;52.00;;;;;;5070577;28;20031;-68
2022/07/15 11:44:44;;;;;;;17.60;3.17;;;27.30;52.80;;;;;;5068636;28;20187;-67
2022/07/15 11:46:44;;;;;;;5.30;2.30;;;27.20;54.10;;;;;;5052101;28;20036;-69
2022/07/15 11:49:10;;;;;;;13.98;2.67;;;27.00;53.10;;;;;;5070514;28;20056;-69
2022/07/15 11:51:36;;;;;;;14.88;3.03;;;26.90;53.90;;;;;;5067448;28;20048;-68
2022/07/15 11:54:02;;;;;;;5.97;1.90;;;27.10;54.00;;;;;;5066998;28;20572;-69
2022/07/15 11:56:28;;;;;;;6.32;2.20;;;27.20;54.10;;;;;;5067702;28;20032;-70
2022/07/15 11:58:56;;;;;;;6.97;2.28;;;27.40;52.80;;;;;;5068128;28;20108;-68
2022/07/15 12:01:28;;;;;;;3.22;2.17;;;27.60;53.00;;;;;;5068260;28;20393;-68
2022/07/15 12:03:55;;;;;;;4.85;2.20;;;27.60;52.70;;;;;;5061186;28;20456;-68
2022/07/15 12:06:27;;;;;;;4.78;2.35;;;27.60;53.10;;;;;;5070664;28;20397;-68
2022/07/15 12:08:58;;;;;;;6.03;2.53;;;27.70;52.90;;;;;;5068573;28;20025;-69
2022/07/15 12:11:32;;;;;;;8.07;2.33;;;27.70;52.60;;;;;;5071563;28;20033;-68
2022/07/15 12:14:01;;;;;;;6.70;2.58;;;27.60;53.10;;;;;;5064920;28;20061;-68
2022/07/15 12:16:39;;;;;;;6.47;2.30;;;27.20;52.90;;;;;;5065711;28;20358;-68
2022/07/15 12:19:25;;;;;;;5.60;2.17;;;26.80;53.50;;;;;;5067424;28;20626;-69
2022/07/15 12:21:54;;;;;;;4.53;2.25;;;26.60;54.50;;;;;;5070056;28;20029;-68
2022/07/15 12:24:22;;;;;;;6.70;2.45;;;26.60;54.30;;;;;;5064622;28;20104;-69
2022/07/15 12:26:51;;;;;;;3.85;2.13;;;26.70;53.90;;;;;;5063486;28;20042;-68
2022/07/15 12:29:18;;;;;;;7.93;2.40;;;26.80;54.90;;;;;;5070274;28;20075;-69
2022/07/15 12:31:55;;;;;;;7.30;2.25;;;26.70;54.10;;;;;;5069929;28;20461;-68
2022/07/15 12:34:22;;;;;;;4.60;2.30;;;26.60;54.30;;;;;;5059768;28;20374;-69
2022/07/15 12:36:58;;;;;;;3.03;2.22;;;26.70;55.10;;;;;;5068058;28;20036;-69
2022/07/15 12:39:25;;;;;;;6.00;2.22;;;26.90;53.70;;;;;;5067769;28;20025;-69
2022/07/15 12:42:17;;;;;;;4.43;2.10;;;26.80;54.40;;;;;;5069546;28;20032;-69
2022/07/15 12:44:43;;;;;;;2.83;1.70;;;26.70;53.80;;;;;;5067369;28;20045;-70
2022/07/15 12:47:08;;;;;;;6.07;2.15;;;26.60;53.50;;;;;;5069593;28;20031;-70
2022/07/15 12:49:42;;;;;;;7.38;2.20;;;26.70;53.80;;;;;;5070095;28;20413;-70
2022/07/15 12:52:33;;;;;;;4.07;1.95;;;26.50;54.10;;;;;;5071803;28;20070;-69
2022/07/15 12:55:12;;;;;;;6.13;2.25;;;26.40;54.70;;;;;;5064039;28;20055;-69
2022/07/15 12:57:38;;;;;;;4.13;2.20;;;26.80;54.50;;;;;;5074737;28;20443;-68
2022/07/15 13:00:18;;;;;;;4.93;1.92;;;27.10;53.10;;;;;;5071265;28;20373;-68
2022/07/15 13:03:17;;;;;;;3.63;1.98;;;27.40;53.80;;;;;;5069258;28;20052;-70
2022/07/15 13:05:45;;;;;;;7.32;2.22;;;27.40;53.20;;;;;;5073093;28;20524;-68